TAP1685 LPPT-LPMA
Flight info
| Callsign | TAP1685 |
|---|---|
| Flight time | 1h 26m |
| Altitude | 35000 |
| Route | ULVOT DCT GALPA DCT RAKUN |
| Aircraft | A320/M-SDE3FGHIRWY/LB1 |
Departure
| Time | 2026-05-07 21:46 |
|---|---|
| Airport | Lisbon Humberto Delgado Airport (LPPT) |
Arrival
| Time | 2026-05-07 23:12 |
|---|---|
| Airport | Cristiano Ronaldo International Airport (LPMA) |
| Time | Latitude | Longitude | Altitude | Speed | Heading |
|---|---|---|---|---|---|
| 2026-05-07 21:08 | 38.77161 | -9.13122 | 337 ft | 0 kts | 79° |
| 2026-05-07 21:34 | 38.77160 | -9.13129 | 332 ft | 4 kts | 79° |
| 2026-05-07 21:35 | 38.77155 | -9.13163 | 333 ft | 4 kts | 85° |
| 2026-05-07 21:35 | 38.77156 | -9.13197 | 332 ft | 4 kts | 109° |
| 2026-05-07 21:35 | 38.77167 | -9.13216 | 333 ft | 1 kts | 169° |
| 2026-05-07 21:38 | 38.77143 | -9.13210 | 338 ft | 7 kts | 169° |
| 2026-05-07 21:38 | 38.77103 | -9.13199 | 338 ft | 7 kts | 166° |
| 2026-05-07 21:38 | 38.77041 | -9.13205 | 339 ft | 11 kts | 221° |
| 2026-05-07 21:38 | 38.76974 | -9.13280 | 341 ft | 17 kts | 180° |
| 2026-05-07 21:39 | 38.76849 | -9.13251 | 339 ft | 15 kts | 168° |
| 2026-05-07 21:39 | 38.76766 | -9.13283 | 337 ft | 13 kts | 247° |
| 2026-05-07 21:39 | 38.76736 | -9.13386 | 350 ft | 12 kts | 232° |
| 2026-05-07 21:39 | 38.76673 | -9.13442 | 349 ft | 9 kts | 210° |
| 2026-05-07 21:40 | 38.76667 | -9.13452 | 351 ft | 0 kts | 235° |
| 2026-05-07 21:41 | 38.76657 | -9.13481 | 346 ft | 2 kts | 252° |
| 2026-05-07 21:41 | 38.76655 | -9.13488 | 353 ft | 0 kts | 253° |
| 2026-05-07 21:42 | 38.76655 | -9.13489 | 353 ft | 1 kts | 253° |
| 2026-05-07 21:42 | 38.76644 | -9.13555 | 350 ft | 14 kts | 257° |
| 2026-05-07 21:43 | 38.76622 | -9.13683 | 347 ft | 15 kts | 258° |
| 2026-05-07 21:43 | 38.76598 | -9.13822 | 349 ft | 17 kts | 257° |
| 2026-05-07 21:43 | 38.76573 | -9.13971 | 346 ft | 14 kts | 255° |
| 2026-05-07 21:43 | 38.76521 | -9.14075 | 346 ft | 14 kts | 232° |
| 2026-05-07 21:44 | 38.76506 | -9.14202 | 346 ft | 18 kts | 286° |
| 2026-05-07 21:44 | 38.76536 | -9.14299 | 336 ft | 0 kts | 292° |
| 2026-05-07 21:44 | 38.76537 | -9.14303 | 334 ft | 0 kts | 292° |
| 2026-05-07 21:44 | 38.76537 | -9.14304 | 334 ft | 0 kts | 292° |
| 2026-05-07 21:45 | 38.76541 | -9.14316 | 335 ft | 4 kts | 292° |
| 2026-05-07 21:45 | 38.76580 | -9.14392 | 333 ft | 15 kts | 327° |
| 2026-05-07 21:45 | 38.76700 | -9.14356 | 335 ft | 23 kts | 17° |
| 2026-05-07 21:45 | 38.76996 | -9.14202 | 353 ft | 78 kts | 23° |
| 2026-05-07 21:46 | 38.77680 | -9.13834 | 365 ft | 133 kts | 22° |
| 2026-05-07 21:46 | 38.78683 | -9.13305 | 411 ft | 173 kts | 21° |
| 2026-05-07 21:46 | 38.79756 | -9.12690 | 1141 ft | 167 kts | 21° |
| 2026-05-07 21:46 | 38.80840 | -9.12106 | 1716 ft | 175 kts | 20° |
| 2026-05-07 21:47 | 38.82004 | -9.11493 | 1927 ft | 188 kts | 23° |
| 2026-05-07 21:47 | 38.83228 | -9.10630 | 2183 ft | 211 kts | 29° |
| 2026-05-07 21:47 | 38.84545 | -9.09589 | 2536 ft | 235 kts | 30° |
| 2026-05-07 21:47 | 38.85993 | -9.08420 | 3043 ft | 254 kts | 31° |
| 2026-05-07 21:48 | 38.87496 | -9.07166 | 3822 ft | 262 kts | 37° |
| 2026-05-07 21:48 | 38.88617 | -9.05298 | 4668 ft | 263 kts | 59° |
| 2026-05-07 21:48 | 38.89598 | -9.03470 | 6060 ft | 238 kts | 49° |
| 2026-05-07 21:48 | 38.90759 | -9.02111 | 7254 ft | 214 kts | 33° |
| 2026-05-07 21:49 | 38.92057 | -9.01267 | 7936 ft | 215 kts | 15° |
| 2026-05-07 21:49 | 38.93636 | -9.01063 | 8025 ft | 242 kts | 350° |
| 2026-05-07 21:49 | 38.95185 | -9.01702 | 8863 ft | 222 kts | 324° |
| 2026-05-07 21:49 | 38.96294 | -9.02906 | 9707 ft | 207 kts | 301° |
| 2026-05-07 21:50 | 38.96994 | -9.04627 | 9681 ft | 231 kts | 278° |
| 2026-05-07 21:50 | 38.97071 | -9.06617 | 10317 ft | 213 kts | 252° |
| 2026-05-07 21:50 | 38.96668 | -9.08415 | 10876 ft | 219 kts | 245° |
| 2026-05-07 21:50 | 38.95888 | -9.10181 | 11078 ft | 235 kts | 226° |
| 2026-05-07 21:51 | 38.94728 | -9.11752 | 11319 ft | 256 kts | 220° |
| 2026-05-07 21:51 | 38.93369 | -9.13388 | 11545 ft | 279 kts | 219° |
| 2026-05-07 21:51 | 38.91899 | -9.15160 | 11744 ft | 303 kts | 220° |
| 2026-05-07 21:51 | 38.90335 | -9.17115 | 12010 ft | 322 kts | 221° |
| 2026-05-07 21:52 | 38.88749 | -9.19184 | 12612 ft | 329 kts | 223° |
| 2026-05-07 21:52 | 38.87161 | -9.21324 | 13299 ft | 333 kts | 223° |
| 2026-05-07 21:52 | 38.85570 | -9.23506 | 13960 ft | 336 kts | 223° |
| 2026-05-07 21:52 | 38.83979 | -9.25703 | 14633 ft | 338 kts | 223° |
| 2026-05-07 21:53 | 38.82369 | -9.27930 | 15297 ft | 340 kts | 224° |
| 2026-05-07 21:53 | 38.80761 | -9.30148 | 15940 ft | 342 kts | 224° |
| 2026-05-07 21:53 | 38.79133 | -9.32385 | 16581 ft | 344 kts | 224° |
| 2026-05-07 21:53 | 38.77487 | -9.34642 | 17179 ft | 347 kts | 224° |
| 2026-05-07 21:54 | 38.75834 | -9.36907 | 17793 ft | 350 kts | 224° |
| 2026-05-07 21:54 | 38.74161 | -9.39192 | 18358 ft | 353 kts | 224° |
| 2026-05-07 21:54 | 38.72465 | -9.41504 | 18856 ft | 356 kts | 224° |
| 2026-05-07 21:54 | 38.70771 | -9.43813 | 19370 ft | 358 kts | 224° |
| 2026-05-07 21:55 | 38.69053 | -9.46154 | 19871 ft | 361 kts | 224° |
| 2026-05-07 21:55 | 38.67331 | -9.48500 | 20371 ft | 363 kts | 224° |
| 2026-05-07 21:55 | 38.65641 | -9.50800 | 20854 ft | 365 kts | 224° |
| 2026-05-07 21:55 | 38.63898 | -9.53169 | 21337 ft | 368 kts | 224° |
| 2026-05-07 21:56 | 38.62134 | -9.55560 | 21836 ft | 370 kts | 224° |
| 2026-05-07 21:56 | 38.60366 | -9.57959 | 22304 ft | 372 kts | 224° |
| 2026-05-07 21:56 | 38.58609 | -9.60345 | 22770 ft | 374 kts | 224° |
| 2026-05-07 21:56 | 38.56821 | -9.62766 | 23244 ft | 376 kts | 224° |
| 2026-05-07 21:57 | 38.55019 | -9.65201 | 23676 ft | 378 kts | 224° |
| 2026-05-07 21:57 | 38.53212 | -9.67645 | 24060 ft | 380 kts | 224° |
| 2026-05-07 21:57 | 38.51394 | -9.70104 | 24444 ft | 382 kts | 224° |
| 2026-05-07 21:57 | 38.49568 | -9.72569 | 24827 ft | 383 kts | 224° |
| 2026-05-07 21:58 | 38.47727 | -9.75051 | 25187 ft | 385 kts | 224° |
| 2026-05-07 21:58 | 38.45884 | -9.77537 | 25558 ft | 387 kts | 224° |
| 2026-05-07 21:58 | 38.44032 | -9.80029 | 25919 ft | 388 kts | 224° |
| 2026-05-07 21:58 | 38.42169 | -9.82534 | 26274 ft | 390 kts | 224° |
| 2026-05-07 21:59 | 38.40298 | -9.85050 | 26622 ft | 392 kts | 224° |
| 2026-05-07 21:59 | 38.38416 | -9.87584 | 26975 ft | 394 kts | 224° |
| 2026-05-07 21:59 | 38.36645 | -9.89966 | 27296 ft | 395 kts | 224° |
| 2026-05-07 21:59 | 38.34728 | -9.92543 | 27630 ft | 397 kts | 224° |
| 2026-05-07 22:00 | 38.32844 | -9.95071 | 27975 ft | 399 kts | 224° |
| 2026-05-07 22:00 | 38.30929 | -9.97634 | 28306 ft | 401 kts | 224° |
| 2026-05-07 22:00 | 38.29007 | -10.00206 | 28630 ft | 402 kts | 224° |
| 2026-05-07 22:00 | 38.27074 | -10.02792 | 28934 ft | 404 kts | 224° |
| 2026-05-07 22:01 | 38.25135 | -10.05385 | 29233 ft | 406 kts | 224° |
| 2026-05-07 22:01 | 38.23181 | -10.07993 | 29532 ft | 407 kts | 224° |
| 2026-05-07 22:01 | 38.21227 | -10.10600 | 29834 ft | 409 kts | 224° |
| 2026-05-07 22:01 | 38.19262 | -10.13223 | 30126 ft | 410 kts | 224° |
| 2026-05-07 22:02 | 38.17288 | -10.15855 | 30381 ft | 411 kts | 223° |
| 2026-05-07 22:02 | 38.15312 | -10.18480 | 30647 ft | 412 kts | 223° |
| 2026-05-07 22:02 | 38.13328 | -10.21114 | 31005 ft | 410 kts | 223° |
| 2026-05-07 22:02 | 38.11368 | -10.23718 | 31429 ft | 407 kts | 223° |
| 2026-05-07 22:03 | 38.09417 | -10.26305 | 31813 ft | 404 kts | 223° |
| 2026-05-07 22:03 | 38.07476 | -10.28878 | 32206 ft | 402 kts | 223° |
| 2026-05-07 22:03 | 38.05576 | -10.31400 | 32588 ft | 399 kts | 223° |
| 2026-05-07 22:03 | 38.03661 | -10.33945 | 32979 ft | 397 kts | 223° |
| 2026-05-07 22:04 | 38.01759 | -10.36469 | 33329 ft | 396 kts | 223° |
| 2026-05-07 22:04 | 37.99860 | -10.38984 | 33693 ft | 394 kts | 223° |
| 2026-05-07 22:04 | 37.97970 | -10.41482 | 34039 ft | 392 kts | 223° |
| 2026-05-07 22:04 | 37.96086 | -10.43971 | 34336 ft | 391 kts | 223° |
| 2026-05-07 22:05 | 37.94203 | -10.46454 | 34583 ft | 391 kts | 223° |
| 2026-05-07 22:05 | 37.92312 | -10.48944 | 34818 ft | 391 kts | 223° |
| 2026-05-07 22:05 | 37.90420 | -10.51432 | 34945 ft | 391 kts | 223° |
| 2026-05-07 22:05 | 37.88538 | -10.53903 | 34970 ft | 390 kts | 223° |
| 2026-05-07 22:06 | 37.84768 | -10.58847 | 34969 ft | 390 kts | 223° |
| 2026-05-07 22:06 | 37.81010 | -10.63785 | 34968 ft | 390 kts | 223° |
| 2026-05-07 22:07 | 37.77232 | -10.68739 | 34969 ft | 391 kts | 223° |
| 2026-05-07 22:07 | 37.73450 | -10.73687 | 34969 ft | 392 kts | 223° |
| 2026-05-07 22:08 | 37.69686 | -10.78604 | 34969 ft | 392 kts | 223° |
| 2026-05-07 22:08 | 37.65890 | -10.83559 | 34970 ft | 392 kts | 223° |
| 2026-05-07 22:09 | 37.62101 | -10.88498 | 34965 ft | 393 kts | 223° |
| 2026-05-07 22:09 | 37.58292 | -10.93451 | 34953 ft | 393 kts | 224° |
| 2026-05-07 22:10 | 37.54474 | -10.98397 | 34959 ft | 394 kts | 224° |
| 2026-05-07 22:10 | 37.50649 | -11.03354 | 34955 ft | 395 kts | 224° |
| 2026-05-07 22:11 | 37.46811 | -11.08323 | 34952 ft | 396 kts | 224° |
| 2026-05-07 22:11 | 37.42957 | -11.13303 | 34959 ft | 397 kts | 224° |
| 2026-05-07 22:12 | 37.39098 | -11.18285 | 34957 ft | 398 kts | 224° |
| 2026-05-07 22:12 | 37.35214 | -11.23288 | 34961 ft | 399 kts | 224° |
| 2026-05-07 22:13 | 37.31342 | -11.28272 | 34954 ft | 400 kts | 224° |
| 2026-05-07 22:13 | 37.27471 | -11.33235 | 34956 ft | 400 kts | 224° |
| 2026-05-07 22:14 | 37.23570 | -11.38233 | 34956 ft | 401 kts | 224° |
| 2026-05-07 22:14 | 37.19665 | -11.43238 | 34952 ft | 402 kts | 224° |
| 2026-05-07 22:15 | 37.15740 | -11.48259 | 34959 ft | 403 kts | 224° |
| 2026-05-07 22:15 | 37.11810 | -11.53270 | 34952 ft | 404 kts | 225° |
| 2026-05-07 22:16 | 37.07867 | -11.58283 | 34956 ft | 404 kts | 225° |
| 2026-05-07 22:16 | 37.03912 | -11.63314 | 34953 ft | 405 kts | 225° |
| 2026-05-07 22:17 | 36.99955 | -11.68352 | 34959 ft | 406 kts | 225° |
| 2026-05-07 22:17 | 36.95987 | -11.73378 | 34954 ft | 407 kts | 225° |
| 2026-05-07 22:18 | 36.90038 | -11.80891 | 34965 ft | 407 kts | 225° |
| 2026-05-07 22:19 | 36.86049 | -11.85934 | 34972 ft | 408 kts | 226° |
| 2026-05-07 22:19 | 36.82058 | -11.90969 | 34969 ft | 408 kts | 225° |
| 2026-05-07 22:20 | 36.78063 | -11.96008 | 34973 ft | 409 kts | 226° |
| 2026-05-07 22:20 | 36.74058 | -12.01040 | 34969 ft | 409 kts | 226° |
| 2026-05-07 22:21 | 36.70048 | -12.06070 | 34969 ft | 409 kts | 226° |
| 2026-05-07 22:21 | 36.66030 | -12.11099 | 34975 ft | 409 kts | 226° |
| 2026-05-07 22:22 | 36.62036 | -12.16094 | 34967 ft | 410 kts | 226° |
| 2026-05-07 22:22 | 36.58018 | -12.21122 | 34971 ft | 410 kts | 226° |
| 2026-05-07 22:23 | 36.53986 | -12.26157 | 34960 ft | 411 kts | 226° |
| 2026-05-07 22:23 | 36.49949 | -12.31177 | 34958 ft | 411 kts | 226° |
| 2026-05-07 22:24 | 36.45894 | -12.36219 | 34957 ft | 412 kts | 227° |
| 2026-05-07 22:24 | 36.41832 | -12.41256 | 34949 ft | 413 kts | 227° |
| 2026-05-07 22:25 | 36.37755 | -12.46298 | 34944 ft | 414 kts | 227° |
| 2026-05-07 22:25 | 36.33701 | -12.51323 | 34952 ft | 415 kts | 227° |
| 2026-05-07 22:26 | 36.29609 | -12.56381 | 34940 ft | 416 kts | 227° |
| 2026-05-07 22:26 | 36.25506 | -12.61440 | 34946 ft | 417 kts | 227° |
| 2026-05-07 22:27 | 36.21379 | -12.66527 | 34945 ft | 418 kts | 227° |
| 2026-05-07 22:27 | 36.17248 | -12.71602 | 34950 ft | 420 kts | 227° |
| 2026-05-07 22:28 | 36.13097 | -12.76688 | 34941 ft | 421 kts | 228° |
| 2026-05-07 22:28 | 36.08931 | -12.81791 | 34942 ft | 422 kts | 228° |
| 2026-05-07 22:29 | 36.04765 | -12.86899 | 34942 ft | 423 kts | 228° |
| 2026-05-07 22:29 | 36.00577 | -12.92017 | 34947 ft | 424 kts | 228° |
| 2026-05-07 22:30 | 35.96379 | -12.97142 | 34939 ft | 425 kts | 229° |
| 2026-05-07 22:30 | 35.92199 | -13.02239 | 34944 ft | 426 kts | 229° |
| 2026-05-07 22:31 | 35.87951 | -13.07399 | 34941 ft | 426 kts | 229° |
| 2026-05-07 22:31 | 35.83748 | -13.12498 | 34951 ft | 427 kts | 229° |
| 2026-05-07 22:32 | 35.79514 | -13.17639 | 34938 ft | 427 kts | 229° |
| 2026-05-07 22:32 | 35.75986 | -13.21913 | 34944 ft | 428 kts | 229° |
| 2026-05-07 22:33 | 35.71736 | -13.27037 | 34936 ft | 428 kts | 230° |
| 2026-05-07 22:33 | 35.67481 | -13.32175 | 34937 ft | 429 kts | 230° |
| 2026-05-07 22:34 | 35.63216 | -13.37319 | 34935 ft | 430 kts | 230° |
| 2026-05-07 22:34 | 35.58933 | -13.42468 | 34941 ft | 431 kts | 230° |
| 2026-05-07 22:35 | 35.54647 | -13.47613 | 34940 ft | 431 kts | 230° |
| 2026-05-07 22:35 | 35.50380 | -13.52734 | 34944 ft | 431 kts | 230° |
| 2026-05-07 22:36 | 35.46100 | -13.57869 | 34945 ft | 431 kts | 231° |
| 2026-05-07 22:36 | 35.41793 | -13.63012 | 34944 ft | 432 kts | 231° |
| 2026-05-07 22:37 | 35.37492 | -13.68141 | 34942 ft | 432 kts | 231° |
| 2026-05-07 22:37 | 35.33177 | -13.73276 | 34944 ft | 433 kts | 231° |
| 2026-05-07 22:38 | 35.28859 | -13.78411 | 34940 ft | 433 kts | 231° |
| 2026-05-07 22:38 | 35.24530 | -13.83549 | 34936 ft | 433 kts | 231° |
| 2026-05-07 22:39 | 35.20198 | -13.88693 | 34938 ft | 433 kts | 231° |
| 2026-05-07 22:39 | 35.15878 | -13.93818 | 34941 ft | 433 kts | 231° |
| 2026-05-07 22:40 | 35.11543 | -13.98939 | 34935 ft | 433 kts | 231° |
| 2026-05-07 22:40 | 35.07234 | -14.04020 | 34937 ft | 433 kts | 231° |
| 2026-05-07 22:41 | 35.02887 | -14.09139 | 34936 ft | 433 kts | 231° |
| 2026-05-07 22:41 | 34.98557 | -14.14237 | 34939 ft | 433 kts | 231° |
| 2026-05-07 22:42 | 34.94216 | -14.19342 | 34932 ft | 434 kts | 231° |
| 2026-05-07 22:42 | 34.89867 | -14.24449 | 34937 ft | 434 kts | 231° |
| 2026-05-07 22:43 | 34.85513 | -14.29557 | 34937 ft | 435 kts | 231° |
| 2026-05-07 22:43 | 34.81145 | -14.34666 | 34937 ft | 435 kts | 231° |
| 2026-05-07 22:44 | 34.76803 | -14.39728 | 34938 ft | 435 kts | 231° |
| 2026-05-07 22:44 | 34.72429 | -14.44831 | 34934 ft | 436 kts | 231° |
| 2026-05-07 22:45 | 34.68052 | -14.49941 | 34937 ft | 436 kts | 231° |
| 2026-05-07 22:45 | 34.63674 | -14.55030 | 34934 ft | 437 kts | 231° |
| 2026-05-07 22:46 | 34.59275 | -14.60118 | 34932 ft | 437 kts | 231° |
| 2026-05-07 22:46 | 34.54862 | -14.65215 | 34934 ft | 438 kts | 231° |
| 2026-05-07 22:47 | 34.50461 | -14.70313 | 34931 ft | 438 kts | 231° |
| 2026-05-07 22:47 | 34.46049 | -14.75415 | 34935 ft | 439 kts | 231° |
| 2026-05-07 22:48 | 34.41628 | -14.80526 | 34932 ft | 439 kts | 231° |
| 2026-05-07 22:48 | 34.37235 | -14.85589 | 34929 ft | 439 kts | 231° |
| 2026-05-07 22:49 | 34.32800 | -14.90686 | 34939 ft | 439 kts | 231° |
| 2026-05-07 22:49 | 34.28361 | -14.95786 | 34937 ft | 439 kts | 231° |
| 2026-05-07 22:50 | 34.23925 | -15.00878 | 34939 ft | 440 kts | 231° |
| 2026-05-07 22:50 | 34.19479 | -15.05966 | 34942 ft | 440 kts | 231° |
| 2026-05-07 22:51 | 34.15024 | -15.11049 | 34937 ft | 441 kts | 231° |
| 2026-05-07 22:51 | 34.10572 | -15.16130 | 34940 ft | 441 kts | 231° |
| 2026-05-07 22:52 | 34.06115 | -15.21211 | 34938 ft | 441 kts | 231° |
| 2026-05-07 22:52 | 34.01655 | -15.26287 | 34942 ft | 441 kts | 231° |
| 2026-05-07 22:53 | 33.97176 | -15.31377 | 34932 ft | 442 kts | 231° |
| 2026-05-07 22:53 | 33.92719 | -15.36423 | 34935 ft | 444 kts | 230° |
| 2026-05-07 22:54 | 33.88216 | -15.41527 | 34931 ft | 445 kts | 231° |
| 2026-05-07 22:54 | 33.83691 | -15.46655 | 34939 ft | 446 kts | 230° |
| 2026-05-07 22:55 | 33.79166 | -15.51767 | 34513 ft | 452 kts | 230° |
| 2026-05-07 22:55 | 33.76841 | -15.54400 | 33224 ft | 464 kts | 230° |
| 2026-05-07 22:55 | 33.74483 | -15.57065 | 31728 ft | 467 kts | 230° |
| 2026-05-07 22:55 | 33.72102 | -15.59746 | 30059 ft | 472 kts | 229° |
| 2026-05-07 22:56 | 33.69694 | -15.62453 | 28161 ft | 481 kts | 229° |
| 2026-05-07 22:56 | 33.67228 | -15.65223 | 26855 ft | 484 kts | 228° |
| 2026-05-07 22:56 | 33.64774 | -15.67970 | 25010 ft | 483 kts | 228° |
| 2026-05-07 22:56 | 33.62320 | -15.70714 | 23527 ft | 479 kts | 227° |
| 2026-05-07 22:57 | 33.59926 | -15.73377 | 22934 ft | 453 kts | 227° |
| 2026-05-07 22:57 | 33.57691 | -15.75855 | 22649 ft | 423 kts | 227° |
| 2026-05-07 22:57 | 33.55629 | -15.78148 | 22391 ft | 398 kts | 228° |
| 2026-05-07 22:57 | 33.53666 | -15.80380 | 22130 ft | 384 kts | 229° |
| 2026-05-07 22:58 | 33.51769 | -15.82609 | 21864 ft | 380 kts | 230° |
| 2026-05-07 22:58 | 33.49923 | -15.84812 | 21481 ft | 369 kts | 230° |
| 2026-05-07 22:58 | 33.48136 | -15.86941 | 20972 ft | 357 kts | 230° |
| 2026-05-07 22:58 | 33.46396 | -15.89003 | 20464 ft | 346 kts | 230° |
| 2026-05-07 22:59 | 33.44686 | -15.91022 | 19984 ft | 344 kts | 229° |
| 2026-05-07 22:59 | 33.42985 | -15.93021 | 19491 ft | 342 kts | 229° |
| 2026-05-07 22:59 | 33.41296 | -15.95001 | 19005 ft | 342 kts | 229° |
| 2026-05-07 22:59 | 33.39582 | -15.97009 | 18503 ft | 345 kts | 229° |
| 2026-05-07 23:00 | 33.37909 | -15.98967 | 17979 ft | 347 kts | 228° |
| 2026-05-07 23:00 | 33.36178 | -16.00992 | 17457 ft | 348 kts | 228° |
| 2026-05-07 23:00 | 33.34453 | -16.03007 | 16964 ft | 349 kts | 228° |
| 2026-05-07 23:00 | 33.32711 | -16.05036 | 16624 ft | 349 kts | 228° |
| 2026-05-07 23:01 | 33.30974 | -16.07059 | 15980 ft | 349 kts | 228° |
| 2026-05-07 23:01 | 33.29228 | -16.09091 | 15489 ft | 350 kts | 228° |
| 2026-05-07 23:01 | 33.27484 | -16.11116 | 15000 ft | 350 kts | 227° |
| 2026-05-07 23:01 | 33.25737 | -16.13141 | 14519 ft | 351 kts | 227° |
| 2026-05-07 23:02 | 33.23986 | -16.15175 | 14016 ft | 352 kts | 227° |
| 2026-05-07 23:02 | 33.22230 | -16.17218 | 13486 ft | 352 kts | 227° |
| 2026-05-07 23:02 | 33.20482 | -16.19252 | 12966 ft | 350 kts | 227° |
| 2026-05-07 23:02 | 33.18740 | -16.21278 | 12482 ft | 348 kts | 227° |
| 2026-05-07 23:03 | 33.17004 | -16.23294 | 11961 ft | 347 kts | 227° |
| 2026-05-07 23:03 | 33.15309 | -16.25261 | 11482 ft | 345 kts | 227° |
| 2026-05-07 23:03 | 33.13595 | -16.27247 | 11002 ft | 343 kts | 227° |
| 2026-05-07 23:03 | 33.11894 | -16.29214 | 10534 ft | 340 kts | 227° |
| 2026-05-07 23:04 | 33.10216 | -16.31148 | 10261 ft | 331 kts | 227° |
| 2026-05-07 23:04 | 33.08585 | -16.33025 | 10155 ft | 319 kts | 227° |
| 2026-05-07 23:04 | 33.07022 | -16.34823 | 10024 ft | 308 kts | 227° |
| 2026-05-07 23:04 | 33.05504 | -16.36572 | 9908 ft | 297 kts | 227° |
| 2026-05-07 23:05 | 33.04035 | -16.38266 | 9523 ft | 290 kts | 227° |
| 2026-05-07 23:05 | 33.02595 | -16.39932 | 8872 ft | 287 kts | 227° |
| 2026-05-07 23:05 | 33.01177 | -16.41574 | 8403 ft | 282 kts | 227° |
| 2026-05-07 23:05 | 32.99772 | -16.43198 | 8035 ft | 283 kts | 227° |
| 2026-05-07 23:06 | 32.98366 | -16.44825 | 7657 ft | 281 kts | 227° |
| 2026-05-07 23:06 | 32.96960 | -16.46447 | 7277 ft | 279 kts | 226° |
| 2026-05-07 23:06 | 32.95570 | -16.48046 | 6910 ft | 278 kts | 226° |
| 2026-05-07 23:06 | 32.94185 | -16.49642 | 6544 ft | 276 kts | 226° |
| 2026-05-07 23:07 | 32.92904 | -16.51120 | 6188 ft | 274 kts | 226° |
| 2026-05-07 23:07 | 32.91542 | -16.52629 | 5819 ft | 262 kts | 225° |
| 2026-05-07 23:07 | 32.90214 | -16.54049 | 5479 ft | 250 kts | 224° |
| 2026-05-07 23:07 | 32.88960 | -16.55372 | 5161 ft | 242 kts | 224° |
| 2026-05-07 23:08 | 32.87709 | -16.56692 | 4839 ft | 239 kts | 224° |
| 2026-05-07 23:08 | 32.86462 | -16.58015 | 4513 ft | 240 kts | 224° |
| 2026-05-07 23:08 | 32.85223 | -16.59336 | 4195 ft | 238 kts | 225° |
| 2026-05-07 23:08 | 32.84031 | -16.60687 | 4007 ft | 236 kts | 226° |
| 2026-05-07 23:09 | 32.82862 | -16.62067 | 3881 ft | 239 kts | 227° |
| 2026-05-07 23:09 | 32.81683 | -16.63469 | 3441 ft | 239 kts | 227° |
| 2026-05-07 23:09 | 32.80516 | -16.64855 | 3014 ft | 235 kts | 227° |
| 2026-05-07 23:09 | 32.79365 | -16.66214 | 2640 ft | 231 kts | 227° |
| 2026-05-07 23:10 | 32.78264 | -16.67508 | 2510 ft | 214 kts | 227° |
| 2026-05-07 23:10 | 32.77203 | -16.68753 | 2616 ft | 214 kts | 227° |
| 2026-05-07 23:10 | 32.76144 | -16.69995 | 2290 ft | 213 kts | 226° |
| 2026-05-07 23:10 | 32.75039 | -16.71148 | 1657 ft | 208 kts | 221° |
| 2026-05-07 23:11 | 32.74021 | -16.72314 | 1065 ft | 196 kts | 231° |
| 2026-05-07 23:11 | 32.73193 | -16.73483 | 794 ft | 175 kts | 228° |
| 2026-05-07 23:11 | 32.72378 | -16.74431 | 608 ft | 152 kts | 223° |
| 2026-05-07 23:11 | 32.71656 | -16.75250 | 584 ft | 139 kts | 229° |
| 2026-05-07 23:12 | 32.70974 | -16.76044 | 356 ft | 134 kts | 225° |
| 2026-05-07 23:12 | 32.70332 | -16.76830 | 203 ft | 130 kts | 227° |
| 2026-05-07 23:12 | 32.69771 | -16.77467 | 183 ft | 79 kts | 224° |
| 2026-05-07 23:12 | 32.69546 | -16.77727 | 175 ft | 32 kts | 225° |
| 2026-05-07 23:13 | 32.69396 | -16.77906 | 170 ft | 20 kts | 224° |
| 2026-05-07 23:13 | 32.69344 | -16.77956 | 169 ft | 8 kts | 201° |
| 2026-05-07 23:13 | 32.69296 | -16.77932 | 169 ft | 9 kts | 123° |
| 2026-05-07 23:13 | 32.69299 | -16.77853 | 169 ft | 9 kts | 64° |
| 2026-05-07 23:14 | 32.69314 | -16.77811 | 169 ft | 0 kts | 104° |
| 2026-05-07 23:14 | 32.69312 | -16.77801 | 169 ft | 1 kts | 108° |
| 2026-05-07 23:14 | 32.69304 | -16.77786 | 169 ft | 4 kts | 126° |
| 2026-05-07 23:15 | 32.69294 | -16.77772 | 169 ft | 1 kts | 132° |
| 2026-05-07 23:15 | 32.69291 | -16.77768 | 169 ft | 0 kts | 134° |
| 2026-05-07 23:15 | 32.69290 | -16.77767 | 169 ft | 1 kts | 134° |
| 2026-05-07 23:15 | 32.69288 | -16.77765 | 169 ft | 0 kts | 135° |
| 2026-05-07 23:16 | 32.69286 | -16.77763 | 169 ft | 0 kts | 136° |
| 2026-05-07 23:16 | 32.69285 | -16.77761 | 169 ft | 0 kts | 136° |
| 2026-05-07 23:16 | 32.69283 | -16.77760 | 169 ft | 0 kts | 136° |
| 2026-05-07 23:16 | 32.69283 | -16.77759 | 169 ft | 0 kts | 137° |